createdAt,value
2018-07-20T00:00:38.557Z,39.00
2018-07-20T00:03:07.904Z,39.80
2018-07-20T00:05:37.146Z,39.70
2018-07-20T00:08:06.628Z,39.60
2018-07-20T00:10:36.552Z,40.40
2018-07-20T00:13:06.847Z,41.20
2018-07-20T00:15:36.142Z,42.50
2018-07-20T00:18:06.049Z,43.20
2018-07-20T00:20:35.389Z,42.10
2018-07-20T00:23:04.837Z,42.00
2018-07-20T00:25:34.085Z,41.90
2018-07-20T00:28:03.406Z,42.10
2018-07-20T00:30:32.951Z,42.80
2018-07-20T00:33:06.185Z,42.70
2018-07-20T00:35:35.420Z,43.20
2018-07-20T00:38:04.932Z,44.20
2018-07-20T00:40:34.290Z,44.20
2018-07-20T00:43:03.563Z,45.00
2018-07-20T00:45:34.213Z,45.60
2018-07-20T00:48:03.438Z,45.30
2018-07-20T00:50:32.750Z,45.20
2018-07-20T00:53:02.013Z,45.20
2018-07-20T00:55:32.591Z,44.30
2018-07-20T00:58:02.580Z,44.30
2018-07-20T01:00:32.096Z,44.60
2018-07-20T01:03:01.309Z,44.30
2018-07-20T01:05:30.964Z,44.70
2018-07-20T01:08:00.396Z,45.30
2018-07-20T01:10:29.786Z,45.80
2018-07-20T01:12:59.315Z,46.00
2018-07-20T01:15:28.566Z,46.50
2018-07-20T01:17:57.844Z,45.80
2018-07-20T01:20:27.164Z,45.70
2018-07-20T01:22:56.419Z,46.50
2018-07-20T01:25:26.477Z,47.10
2018-07-20T01:27:55.868Z,48.80
2018-07-20T01:30:26.058Z,49.50
2018-07-20T01:32:56.890Z,50.00
2018-07-20T01:35:26.121Z,50.10
2018-07-20T01:37:55.396Z,50.70
2018-07-20T01:40:28.406Z,50.50
2018-07-20T01:42:58.273Z,51.10
2018-07-20T01:45:27.632Z,52.10
2018-07-20T01:47:56.915Z,52.00
2018-07-20T01:50:27.170Z,51.80
2018-07-20T01:52:56.431Z,51.60
2018-07-20T01:55:26.306Z,53.40
2018-07-20T01:57:55.576Z,53.30
2018-07-20T02:00:26.265Z,52.40
2018-07-20T02:02:56.346Z,50.20
2018-07-20T02:05:25.616Z,49.90
2018-07-20T02:07:55.592Z,49.50
2018-07-20T02:10:25.706Z,51.00
2018-07-20T02:12:55.339Z,51.10
2018-07-20T02:15:24.526Z,51.30
2018-07-20T02:17:53.783Z,52.10
2018-07-20T02:20:23.118Z,53.40
2018-07-20T02:22:53.260Z,53.10
2018-07-20T02:25:23.160Z,51.50
2018-07-20T02:27:52.665Z,51.80
2018-07-20T02:30:21.970Z,51.30
2018-07-20T02:32:51.249Z,52.00
2018-07-20T02:35:20.657Z,52.60
2018-07-20T02:37:49.899Z,52.70
2018-07-20T02:40:22.740Z,53.60
2018-07-20T02:42:51.966Z,55.60
2018-07-20T02:45:21.206Z,55.00
2018-07-20T02:47:50.437Z,54.20
2018-07-20T02:50:20.967Z,52.90
2018-07-20T02:52:50.563Z,53.90
2018-07-20T02:55:23.574Z,56.50
2018-07-20T02:57:53.231Z,57.10
2018-07-20T03:00:26.660Z,58.00
2018-07-20T03:03:11.696Z,57.60
2018-07-20T03:05:42.147Z,56.40
2018-07-20T03:08:13.435Z,56.10
2018-07-20T03:10:49.589Z,56.00
2018-07-20T03:13:18.870Z,55.90
2018-07-20T03:15:49.233Z,56.10
2018-07-20T03:18:18.513Z,56.50
2018-07-20T03:20:51.822Z,57.40
2018-07-20T03:23:22.105Z,57.00
2018-07-20T03:26:03.300Z,56.50
2018-07-20T03:28:32.655Z,56.50
2018-07-20T03:31:04.311Z,56.30
2018-07-20T03:33:36.177Z,55.20
2018-07-20T03:36:05.544Z,55.20
2018-07-20T03:38:34.757Z,55.90
2018-07-20T03:41:04.345Z,56.20
2018-07-20T03:43:33.907Z,56.00
2018-07-20T03:46:05.414Z,56.30
2018-07-20T03:48:34.689Z,55.70
2018-07-20T03:51:04.843Z,54.90
2018-07-20T03:53:35.948Z,55.60
2018-07-20T03:56:05.154Z,55.60
2018-07-20T03:58:34.380Z,55.10
2018-07-20T04:01:03.719Z,54.40
2018-07-20T04:03:32.975Z,54.30
2018-07-20T04:06:02.177Z,55.60
2018-07-20T04:08:31.671Z,57.00
2018-07-20T04:11:01.586Z,55.00
2018-07-20T04:13:30.822Z,53.60
2018-07-20T04:16:00.338Z,52.40
2018-07-20T04:18:29.577Z,52.10
2018-07-20T04:21:00.639Z,53.00
2018-07-20T04:23:30.593Z,53.80
2018-07-20T04:25:59.874Z,54.10
2018-07-20T04:28:29.083Z,53.20
2018-07-20T04:30:58.947Z,51.60
2018-07-20T04:33:28.155Z,51.90
2018-07-20T04:35:58.189Z,49.90
2018-07-20T04:38:29.145Z,49.30
2018-07-20T04:43:27.400Z,49.00
2018-07-20T04:45:57.614Z,49.50
2018-07-20T04:48:26.854Z,49.50
2018-07-20T04:50:56.400Z,48.70
2018-07-20T04:53:27.151Z,48.60
2018-07-20T04:55:57.104Z,49.10
2018-07-20T04:58:26.272Z,51.00
2018-07-20T05:00:55.496Z,49.30
2018-07-20T05:03:24.928Z,48.20
2018-07-20T05:05:54.892Z,48.40
2018-07-20T05:08:24.081Z,48.40
2018-07-20T05:10:53.683Z,48.10
2018-07-20T05:13:23.297Z,48.80
2018-07-20T05:15:52.538Z,49.00
2018-07-20T05:18:21.710Z,48.80
2018-07-20T05:20:52.011Z,48.90
2018-07-20T05:23:21.395Z,48.00
2018-07-20T05:25:52.998Z,47.80
2018-07-20T05:28:22.227Z,44.90
2018-07-20T05:30:51.777Z,45.10
2018-07-20T05:33:20.999Z,42.30
2018-07-20T05:35:52.461Z,42.40
2018-07-20T05:40:51.757Z,42.00
2018-07-20T05:43:21.513Z,40.20
2018-07-20T05:45:50.761Z,39.70
2018-07-20T05:48:20.011Z,36.70
2018-07-20T05:50:49.850Z,36.00
2018-07-20T05:53:19.125Z,37.00
2018-07-20T05:55:49.943Z,38.70
2018-07-20T05:58:19.310Z,36.10
2018-07-20T06:00:48.659Z,36.20
2018-07-20T06:03:17.890Z,36.50
2018-07-20T06:05:47.498Z,36.50
2018-07-20T06:08:17.525Z,35.30
2018-07-20T06:10:47.828Z,35.60
2018-07-20T06:13:17.058Z,34.70
2018-07-20T06:15:46.766Z,34.00
2018-07-20T06:18:16.052Z,36.10
2018-07-20T06:20:46.310Z,35.00
2018-07-20T06:23:15.570Z,33.20
2018-07-20T06:25:44.894Z,33.50
2018-07-20T06:28:14.995Z,33.80
2018-07-20T06:30:44.500Z,34.90
2018-07-20T06:33:14.147Z,34.80
2018-07-20T06:35:43.417Z,34.30
2018-07-20T06:38:14.019Z,34.00
2018-07-20T06:40:44.552Z,33.70
2018-07-20T06:43:14.208Z,33.60
2018-07-20T06:45:43.406Z,33.30
2018-07-20T06:48:12.610Z,33.40
2018-07-20T06:50:42.887Z,34.10
2018-07-20T06:53:12.132Z,34.60
2018-07-20T06:55:41.327Z,34.50
2018-07-20T06:58:10.512Z,34.70
2018-07-20T07:00:39.773Z,34.90
2018-07-20T07:03:09.014Z,34.30
2018-07-20T07:05:38.249Z,32.40
2018-07-20T07:08:07.474Z,31.40
2018-07-20T07:10:39.665Z,30.40
2018-07-20T07:13:09.024Z,30.10
2018-07-20T07:15:39.040Z,29.30
2018-07-20T07:18:08.668Z,30.00
2018-07-20T07:20:38.195Z,29.10
2018-07-20T07:23:07.429Z,28.90
2018-07-20T07:25:36.675Z,27.70
2018-07-20T07:28:06.023Z,27.80
2018-07-20T07:30:35.278Z,27.20
2018-07-20T07:33:05.580Z,27.30
2018-07-20T07:35:34.794Z,27.20
2018-07-20T07:38:04.817Z,26.50
2018-07-20T07:40:34.115Z,26.20
2018-07-20T07:43:03.908Z,25.30
2018-07-20T07:45:33.874Z,25.60
2018-07-20T07:48:03.244Z,24.80
2018-07-20T07:50:32.535Z,24.10
2018-07-20T07:53:02.271Z,23.60
2018-07-20T07:55:31.612Z,23.50
2018-07-20T07:58:00.838Z,23.80
2018-07-20T08:00:30.145Z,23.60
2018-07-20T08:02:59.401Z,23.80
2018-07-20T08:05:28.589Z,22.20
2018-07-20T08:07:58.734Z,22.90
2018-07-20T08:10:28.350Z,21.90
2018-07-20T08:15:26.361Z,20.90
2018-07-20T08:17:56.901Z,20.80
2018-07-20T08:20:26.191Z,20.40
2018-07-20T08:22:57.671Z,20.90
2018-07-20T08:25:27.690Z,19.70
2018-07-20T08:27:57.015Z,20.40
2018-07-20T08:30:26.491Z,20.50
2018-07-20T08:32:56.407Z,20.20
2018-07-20T08:35:25.863Z,20.30
2018-07-20T08:37:55.117Z,19.90
2018-07-20T08:40:24.466Z,18.90
2018-07-20T08:42:55.218Z,18.90
2018-07-20T08:45:24.495Z,18.10
2018-07-20T08:47:53.714Z,18.50
2018-07-20T08:50:23.077Z,17.90
2018-07-20T08:52:52.292Z,18.60
2018-07-20T08:55:22.119Z,18.10
2018-07-20T08:57:52.015Z,18.40
2018-07-20T09:00:21.390Z,16.70
2018-07-20T09:02:50.598Z,18.40
2018-07-20T09:05:20.252Z,17.20
2018-07-20T09:07:49.459Z,17.60
2018-07-20T09:10:24.195Z,16.60
2018-07-20T09:12:53.576Z,16.60
2018-07-20T09:15:22.760Z,16.80
2018-07-20T09:17:51.990Z,16.50
2018-07-20T09:20:24.348Z,16.30
2018-07-20T09:22:53.624Z,16.20
2018-07-20T09:25:22.840Z,15.90
2018-07-20T09:27:52.060Z,15.30
2018-07-20T09:30:22.427Z,14.50
2018-07-20T09:32:51.714Z,13.70
2018-07-20T09:35:20.972Z,14.70
2018-07-20T09:37:50.692Z,14.40
2018-07-20T09:40:23.292Z,13.60
2018-07-20T09:43:02.694Z,13.20
2018-07-20T09:45:32.544Z,12.20
2018-07-20T09:48:06.770Z,12.10
2018-07-20T09:50:39.269Z,11.30
2018-07-20T09:53:08.559Z,11.00
2018-07-20T09:55:38.537Z,11.00
2018-07-20T09:58:07.764Z,12.00
2018-07-20T10:00:38.321Z,12.70
2018-07-20T10:05:36.467Z,11.80
2018-07-20T10:08:06.446Z,10.80
2018-07-20T10:10:35.758Z,11.40
2018-07-20T10:13:05.053Z,11.20
2018-07-20T10:15:34.946Z,10.70
2018-07-20T10:18:04.159Z,11.40
2018-07-20T10:20:34.239Z,11.90
2018-07-20T10:23:04.685Z,11.70
2018-07-20T10:25:35.370Z,12.90
2018-07-20T10:28:04.606Z,13.60
2018-07-20T10:30:39.330Z,11.20
2018-07-20T10:33:08.674Z,11.40
2018-07-20T10:35:37.838Z,11.10
2018-07-20T10:38:08.044Z,13.00
2018-07-20T10:40:37.414Z,11.40
2018-07-20T10:43:07.442Z,11.20
2018-07-20T10:45:36.746Z,10.90
2018-07-20T10:48:06.731Z,11.80
2018-07-20T10:50:41.881Z,11.60
2018-07-20T10:53:11.295Z,11.00
2018-07-20T10:55:40.496Z,10.80
2018-07-20T10:58:10.958Z,10.90
2018-07-20T11:00:45.827Z,10.40
2018-07-20T11:03:16.946Z,12.50
2018-07-20T11:05:47.129Z,11.90
2018-07-20T11:08:16.350Z,10.80
2018-07-20T11:10:50.285Z,10.00
2018-07-20T11:13:20.793Z,10.30
2018-07-20T11:15:50.374Z,10.70
2018-07-20T11:18:20.211Z,9.80
2018-07-20T11:20:49.758Z,9.60
2018-07-20T11:23:19.317Z,9.10
2018-07-20T11:25:49.427Z,8.40
2018-07-20T11:28:19.082Z,8.30
2018-07-20T11:30:48.827Z,8.20
2018-07-20T11:33:19.529Z,7.10
2018-07-20T11:35:49.815Z,6.20
2018-07-20T11:38:19.526Z,6.20
2018-07-20T11:40:49.308Z,7.00
2018-07-20T11:43:18.505Z,7.90
2018-07-20T11:45:47.751Z,7.60
2018-07-20T11:48:17.630Z,7.10
2018-07-20T11:50:48.214Z,7.80
2018-07-20T11:53:18.491Z,7.40
2018-07-20T11:55:47.681Z,6.60
2018-07-20T11:58:18.689Z,7.10
2018-07-20T12:00:54.281Z,6.20
2018-07-20T12:03:24.692Z,6.30
2018-07-20T12:05:53.935Z,7.20
2018-07-20T12:08:23.249Z,6.30
2018-07-20T12:10:52.602Z,6.80
2018-07-20T12:13:22.920Z,5.70
2018-07-20T12:15:52.778Z,6.00
2018-07-20T12:18:21.952Z,6.30
2018-07-20T12:20:55.994Z,6.10
2018-07-20T12:23:25.180Z,6.50
2018-07-20T12:25:54.630Z,6.10
2018-07-20T12:28:23.787Z,5.40
2018-07-20T12:30:53.354Z,5.30
2018-07-20T12:33:22.687Z,5.70
2018-07-20T12:35:51.843Z,6.10
2018-07-20T12:38:22.894Z,5.30
2018-07-20T12:40:53.106Z,5.20
2018-07-20T12:43:22.593Z,3.70
2018-07-20T12:45:51.804Z,3.90
2018-07-20T12:48:21.279Z,3.00
2018-07-20T12:50:50.551Z,3.60
2018-07-20T12:53:19.815Z,3.80
2018-07-20T12:55:49.686Z,4.10
2018-07-20T12:58:19.506Z,4.50
2018-07-20T13:00:54.648Z,3.40
2018-07-20T13:03:23.892Z,3.40
2018-07-20T13:05:56.057Z,3.10
2018-07-20T13:08:25.307Z,3.10
2018-07-20T13:10:55.179Z,3.30
2018-07-20T13:13:25.637Z,3.40
2018-07-20T13:15:55.851Z,3.30
2018-07-20T13:18:26.842Z,3.20
2018-07-20T13:20:56.182Z,2.70
2018-07-20T13:23:25.440Z,3.50
2018-07-20T13:25:54.655Z,4.20
2018-07-20T13:28:23.973Z,4.30
2018-07-20T13:30:56.836Z,4.40
2018-07-20T13:33:27.061Z,3.10
2018-07-20T13:35:56.476Z,3.40
2018-07-20T13:38:25.701Z,3.40
2018-07-20T13:40:58.694Z,4.00
2018-07-20T13:43:27.929Z,1.20
2018-07-20T13:45:57.176Z,1.00
2018-07-20T13:48:26.752Z,1.00
2018-07-20T13:50:56.224Z,1.00
2018-07-20T13:53:25.960Z,1.00
2018-07-20T13:55:55.297Z,1.00
2018-07-20T13:58:24.535Z,1.00
2018-07-20T14:00:54.468Z,1.00
2018-07-20T14:03:24.580Z,1.00
2018-07-20T14:05:53.791Z,1.00
2018-07-20T14:08:23.940Z,1.00
2018-07-20T14:10:54.952Z,1.00
2018-07-20T14:13:25.094Z,1.00
2018-07-20T14:15:55.267Z,1.00
2018-07-20T14:18:26.894Z,1.60
2018-07-20T14:21:00.493Z,1.80
2018-07-20T14:23:29.705Z,2.30
2018-07-20T14:25:59.405Z,1.80
2018-07-20T14:28:28.663Z,1.30
2018-07-20T14:30:57.979Z,1.90
2018-07-20T14:33:28.382Z,2.00
2018-07-20T14:35:57.997Z,1.70
2018-07-20T14:38:27.226Z,3.00
2018-07-20T14:41:00.178Z,2.80
2018-07-20T14:43:29.781Z,3.20
2018-07-20T14:45:58.950Z,3.50
2018-07-20T14:48:28.992Z,3.10
2018-07-20T14:50:59.938Z,3.80
2018-07-20T14:53:29.111Z,4.40
2018-07-20T14:55:58.360Z,6.20
2018-07-20T14:58:27.960Z,5.60
2018-07-20T15:00:58.209Z,6.60
2018-07-20T15:03:27.914Z,7.40
2018-07-20T15:05:57.145Z,6.50
2018-07-20T15:08:28.383Z,6.30
2018-07-20T15:10:58.382Z,9.20
2018-07-20T15:13:28.497Z,13.10
2018-07-20T15:15:58.367Z,16.60
2018-07-20T15:18:27.562Z,26.50
2018-07-20T15:20:56.810Z,29.10
2018-07-20T15:23:26.110Z,42.20
2018-07-20T15:25:55.283Z,53.40
2018-07-20T15:28:25.080Z,48.80
2018-07-20T15:30:55.328Z,60.00
2018-07-20T15:33:24.560Z,61.10
2018-07-20T15:35:54.518Z,64.90
2018-07-20T15:38:23.780Z,60.20
2018-07-20T15:40:53.085Z,62.20
2018-07-20T15:43:22.330Z,61.40
2018-07-20T15:45:52.101Z,53.20
2018-07-20T15:48:20.802Z,62.30
2018-07-20T15:50:50.389Z,65.60
2018-07-20T15:53:46.421Z,65.00
2018-07-20T15:55:48.818Z,65.80
2018-07-20T15:58:19.025Z,60.10
2018-07-20T16:00:48.554Z,60.00
2018-07-20T16:03:17.814Z,59.50
2018-07-20T16:05:47.137Z,64.50
2018-07-20T16:08:16.622Z,63.00
2018-07-20T16:10:49.542Z,56.50
2018-07-20T16:13:19.684Z,55.20
2018-07-20T16:15:50.187Z,58.50
2018-07-20T16:18:19.421Z,55.80
2018-07-20T16:20:48.762Z,50.80
2018-07-20T16:23:18.573Z,52.90
2018-07-20T16:25:47.911Z,53.00
2018-07-20T16:28:17.104Z,55.00
2018-07-20T16:30:46.567Z,58.00
2018-07-20T16:33:16.398Z,59.40
2018-07-20T16:35:45.642Z,55.70
2018-07-20T16:38:15.163Z,55.20
2018-07-20T16:40:45.378Z,50.40
2018-07-20T16:43:14.647Z,52.00
2018-07-20T16:45:44.676Z,53.60
2018-07-20T16:48:13.906Z,56.10
2018-07-20T16:50:43.229Z,56.90
2018-07-20T16:53:12.399Z,53.10
2018-07-20T16:55:42.706Z,60.00
2018-07-20T16:58:12.218Z,57.70
2018-07-20T17:00:41.837Z,55.40
2018-07-20T17:03:11.753Z,54.20
2018-07-20T17:05:42.231Z,52.00
2018-07-20T17:08:13.741Z,54.40
2018-07-20T17:10:44.010Z,56.50
2018-07-20T17:13:14.923Z,52.40
2018-07-20T17:15:44.215Z,54.60
2018-07-20T17:18:13.480Z,55.80
2018-07-20T17:20:42.873Z,56.10
2018-07-20T17:23:12.160Z,55.60
2018-07-20T17:25:41.387Z,56.00
2018-07-20T17:28:10.688Z,52.00
2018-07-20T17:30:39.979Z,52.20
2018-07-20T17:33:09.203Z,51.50
2018-07-20T17:35:38.423Z,53.70
2018-07-20T17:38:08.683Z,53.60
2018-07-20T17:40:39.667Z,54.10
2018-07-20T17:43:09.871Z,52.60
2018-07-20T17:45:39.161Z,56.60
2018-07-20T17:48:08.493Z,52.40
2018-07-20T17:50:37.926Z,52.60
2018-07-20T17:53:07.161Z,55.10
2018-07-20T17:55:36.453Z,52.90
2018-07-20T17:58:05.712Z,52.60
2018-07-20T18:00:36.011Z,54.40
2018-07-20T18:05:34.360Z,56.60
2018-07-20T18:08:03.582Z,56.50
2018-07-20T18:10:33.002Z,53.40
2018-07-20T18:13:02.114Z,51.70
2018-07-20T18:15:31.678Z,52.60
2018-07-20T18:18:01.821Z,52.20
2018-07-20T18:20:31.624Z,58.40
2018-07-20T18:23:01.754Z,59.20
2018-07-20T18:25:30.988Z,54.70
2018-07-20T18:28:00.480Z,54.10
2018-07-20T18:30:30.831Z,57.90
2018-07-20T18:33:00.144Z,61.60
2018-07-20T18:35:29.413Z,63.40
2018-07-20T18:37:58.615Z,69.30
2018-07-20T18:40:28.004Z,69.30
2018-07-20T18:42:57.287Z,66.60
2018-07-20T18:45:28.087Z,69.70
2018-07-20T18:47:57.388Z,67.40
2018-07-20T18:50:29.956Z,69.20
2018-07-20T18:53:04.805Z,68.20
2018-07-20T18:55:34.025Z,69.40
2018-07-20T18:58:03.369Z,72.30
2018-07-20T19:00:34.676Z,73.20
2018-07-20T19:03:03.886Z,75.70
2018-07-20T19:05:33.186Z,76.40
2018-07-20T19:08:02.435Z,74.50
2018-07-20T19:10:33.822Z,75.70
2018-07-20T19:13:03.090Z,74.20
2018-07-20T19:15:32.330Z,71.60
2018-07-20T19:18:01.532Z,71.70
2018-07-20T19:20:34.423Z,72.00
2018-07-20T19:23:03.802Z,76.60
2018-07-20T19:25:32.995Z,78.30
2018-07-20T19:28:02.194Z,82.70
2018-07-20T19:30:31.618Z,82.50
2018-07-20T19:33:01.802Z,82.50
2018-07-20T19:35:30.981Z,85.80
2018-07-20T19:38:00.180Z,90.00
2018-07-20T19:40:29.477Z,91.10
2018-07-20T19:42:58.599Z,91.20
2018-07-20T19:45:28.642Z,91.60
2018-07-20T19:47:57.903Z,91.50
2018-07-20T19:50:27.305Z,91.50
2018-07-20T19:52:56.541Z,90.90
2018-07-20T19:55:25.897Z,92.30
2018-07-20T19:57:55.277Z,90.50
2018-07-20T20:00:24.735Z,89.90
2018-07-20T20:02:53.940Z,87.50
2018-07-20T20:05:24.024Z,89.00
2018-07-20T20:07:53.266Z,90.60
2018-07-20T20:10:22.487Z,89.50
2018-07-20T20:12:51.676Z,90.70
2018-07-20T20:15:20.990Z,90.70
2018-07-20T20:17:51.844Z,90.50
2018-07-20T20:20:25.649Z,90.00
2018-07-20T20:22:54.886Z,90.10
2018-07-20T20:25:24.090Z,91.30
2018-07-20T20:27:53.361Z,92.80
2018-07-20T20:30:27.940Z,92.90
2018-07-20T20:32:57.353Z,92.90
2018-07-20T20:35:26.836Z,92.70
2018-07-20T20:37:56.467Z,93.20
2018-07-20T20:40:27.467Z,92.40
2018-07-20T20:42:56.756Z,93.10
2018-07-20T20:45:25.987Z,92.80
2018-07-20T20:47:55.319Z,93.30
2018-07-20T20:50:24.690Z,93.40
2018-07-20T20:52:53.982Z,92.70
2018-07-20T20:55:23.255Z,91.60
2018-07-20T20:57:52.518Z,91.10
2018-07-20T21:00:32.844Z,89.60
2018-07-20T21:03:02.131Z,90.70
2018-07-20T21:05:31.368Z,91.40
2018-07-20T21:08:00.607Z,89.80
2018-07-20T21:10:30.905Z,90.30
2018-07-20T21:13:00.189Z,90.40
2018-07-20T21:15:30.040Z,90.50
2018-07-20T21:17:59.249Z,89.90
2018-07-20T21:20:30.634Z,85.60
2018-07-20T21:22:59.967Z,85.00
2018-07-20T21:25:29.227Z,86.40
2018-07-20T21:27:58.438Z,86.60
2018-07-20T21:30:27.753Z,85.70
2018-07-20T21:32:57.225Z,85.00
2018-07-20T21:35:27.017Z,86.90
2018-07-20T21:37:56.270Z,86.90
2018-07-20T21:40:25.709Z,87.00
2018-07-20T21:42:54.934Z,87.40
2018-07-20T21:45:24.762Z,86.90
2018-07-20T21:50:22.839Z,87.00
2018-07-20T21:52:52.112Z,88.00
2018-07-20T21:55:21.324Z,89.00
2018-07-20T21:57:50.731Z,87.80
2018-07-20T22:00:20.567Z,90.60
2018-07-20T22:02:49.907Z,91.10
2018-07-20T22:05:19.439Z,90.60
2018-07-20T22:07:48.719Z,90.70
2018-07-20T22:10:18.016Z,90.50
2018-07-20T22:12:47.323Z,91.00
2018-07-20T22:15:16.719Z,91.10
2018-07-20T22:17:46.737Z,91.70
2018-07-20T22:20:16.270Z,91.60
2018-07-20T22:22:46.229Z,92.00
2018-07-20T22:25:15.461Z,92.10
2018-07-20T22:27:47.405Z,92.20
2018-07-20T22:30:16.932Z,92.80
2018-07-20T22:32:46.430Z,92.70
2018-07-20T22:35:15.623Z,93.30
2018-07-20T22:37:47.769Z,93.80
2018-07-20T22:40:21.858Z,93.50
2018-07-20T22:42:51.087Z,93.10
2018-07-20T22:45:20.830Z,92.80
2018-07-20T22:47:50.048Z,92.70
2018-07-20T22:50:20.932Z,92.90
2018-07-20T22:52:50.217Z,93.00
2018-07-20T22:55:20.557Z,92.70
2018-07-20T23:00:24.023Z,91.20
2018-07-20T23:02:53.548Z,91.10
2018-07-20T23:05:22.842Z,90.90
2018-07-20T23:07:52.058Z,90.50
2018-07-20T23:10:21.473Z,90.20
2018-07-20T23:12:50.810Z,90.30
2018-07-20T23:15:20.183Z,90.50
2018-07-20T23:17:49.438Z,90.00
2018-07-20T23:20:18.816Z,89.80
2018-07-20T23:22:48.024Z,87.70
2018-07-20T23:25:17.756Z,87.60
2018-07-20T23:27:47.200Z,88.50
2018-07-20T23:30:16.919Z,88.30
2018-07-20T23:32:46.326Z,88.50
2018-07-20T23:35:15.525Z,88.60
2018-07-20T23:37:44.828Z,88.00
2018-07-20T23:40:17.185Z,88.60
2018-07-20T23:42:46.424Z,87.60
2018-07-20T23:45:15.773Z,88.10
2018-07-20T23:47:44.989Z,88.50
2018-07-20T23:50:14.465Z,87.70
2018-07-20T23:52:44.547Z,87.30
2018-07-20T23:55:13.741Z,87.20
2018-07-20T23:57:42.937Z,87.10
